Time;durP1;ratioP1;P1;durP2;ratioP2;P2;SDS_P1;SDS_P2;PMS_P1;PMS_P2;Temp;Humidity;BMP_temperature;BMP_pressure;BME280_temperature;BME280_humidity;BME280_pressure;Samples;Min_cycle;Max_cycle;Signal;HPM_P1;HPM_P2
2024/01/25 00:01:17;;;;;;;14.85;3.30;;;8.70;99.90;;;;;;5101822;28;20020;-37
2024/01/25 00:03:42;;;;;;;10.68;2.63;;;8.70;99.90;;;;;;5100163;28;20044;-33
2024/01/25 00:06:08;;;;;;;9.25;3.08;;;8.70;99.90;;;;;;5080774;28;20048;-37
2024/01/25 00:08:34;;;;;;;10.00;2.92;;;8.70;99.90;;;;;;5095327;28;20040;-35
2024/01/25 00:11:01;;;;;;;9.82;2.88;;;8.60;99.90;;;;;;5100698;28;20020;-34
2024/01/25 00:13:27;;;;;;;13.10;3.17;;;8.60;99.90;;;;;;5100850;28;20086;-39
2024/01/25 00:15:52;;;;;;;10.85;2.60;;;8.50;99.90;;;;;;5101419;28;20110;-35
2024/01/25 00:18:18;;;;;;;10.90;2.85;;;8.50;99.90;;;;;;5100336;28;20027;-37
2024/01/25 00:20:44;;;;;;;7.70;2.33;;;8.50;99.90;;;;;;5101671;28;20118;-37
2024/01/25 00:23:09;;;;;;;6.90;2.15;;;8.50;99.90;;;;;;5100452;28;20403;-36
2024/01/25 00:25:35;;;;;;;9.35;3.35;;;8.40;99.90;;;;;;5100481;28;20027;-37
2024/01/25 00:28:00;;;;;;;10.65;2.08;;;8.40;99.90;;;;;;5101542;28;20035;-35
2024/01/25 00:30:26;;;;;;;8.02;2.72;;;8.30;99.90;;;;;;5100884;28;20112;-38
2024/01/25 00:32:52;;;;;;;10.88;3.15;;;8.30;99.90;;;;;;5100393;28;20069;-35
2024/01/25 00:35:17;;;;;;;8.95;2.33;;;8.30;99.90;;;;;;5101330;28;20031;-35
2024/01/25 00:37:43;;;;;;;7.78;2.92;;;8.20;99.90;;;;;;5101446;28;20111;-35
2024/01/25 00:40:10;;;;;;;9.30;2.10;;;8.20;99.90;;;;;;5100313;28;20031;-37
2024/01/25 00:42:53;;;;;;;8.00;2.05;;;8.20;99.90;;;;;;5100912;28;20110;-36
2024/01/25 00:45:19;;;;;;;8.88;2.30;;;8.10;99.90;;;;;;5100360;28;20394;-35
2024/01/25 00:47:45;;;;;;;10.73;2.30;;;8.10;99.90;;;;;;5099987;28;20044;-35
2024/01/25 00:50:11;;;;;;;12.82;2.72;;;8.10;99.90;;;;;;5100272;28;20425;-37
2024/01/25 00:52:37;;;;;;;11.38;2.50;;;8.00;99.90;;;;;;5100802;28;20059;-37
2024/01/25 00:55:03;;;;;;;6.82;2.28;;;8.00;99.90;;;;;;5098581;28;20126;-38
2024/01/25 00:57:29;;;;;;;9.93;2.53;;;8.00;99.90;;;;;;5099454;28;20024;-36
2024/01/25 00:59:55;;;;;;;10.63;2.65;;;7.90;99.90;;;;;;5098375;28;20383;-37
2024/01/25 01:02:21;;;;;;;9.20;2.20;;;7.90;99.90;;;;;;5099078;28;20041;-37
2024/01/25 01:04:48;;;;;;;9.05;2.78;;;7.90;99.90;;;;;;5098492;28;20031;-38
2024/01/25 01:07:14;;;;;;;6.95;2.40;;;7.90;99.90;;;;;;5098289;28;20104;-38
2024/01/25 01:09:39;;;;;;;7.57;1.98;;;7.80;99.90;;;;;;5098931;28;20550;-37
2024/01/25 01:12:06;;;;;;;9.25;2.30;;;7.80;99.90;;;;;;5099694;28;20055;-39
2024/01/25 01:14:32;;;;;;;9.75;2.92;;;7.80;99.90;;;;;;5099818;28;20112;-37
2024/01/25 01:16:58;;;;;;;8.43;2.28;;;7.70;99.90;;;;;;5100557;28;20119;-35
2024/01/25 01:19:24;;;;;;;9.20;2.55;;;7.70;99.90;;;;;;5100114;28;20576;-37
2024/01/25 01:21:49;;;;;;;7.55;2.10;;;7.60;99.90;;;;;;5099705;28;20485;-37
2024/01/25 01:24:15;;;;;;;7.03;2.03;;;7.60;99.90;;;;;;5100618;28;20036;-37
2024/01/25 01:26:44;;;;;;;7.90;2.83;;;7.50;99.90;;;;;;5100033;28;20070;-36
2024/01/25 01:29:09;;;;;;;6.85;2.42;;;7.50;99.90;;;;;;5100392;28;20031;-32
2024/01/25 01:31:35;;;;;;;9.88;2.42;;;7.40;99.90;;;;;;5099131;28;20144;-38
2024/01/25 01:34:01;;;;;;;10.90;2.47;;;7.40;99.90;;;;;;5099499;28;20118;-34
2024/01/25 01:36:27;;;;;;;11.93;2.40;;;7.40;99.90;;;;;;5099055;28;20090;-35
2024/01/25 01:38:52;;;;;;;6.65;2.22;;;7.30;99.90;;;;;;5099844;28;20148;-37
2024/01/25 01:41:18;;;;;;;9.90;2.17;;;7.30;99.90;;;;;;5099641;28;20047;-35
2024/01/25 01:43:46;;;;;;;10.85;2.15;;;7.30;99.90;;;;;;5099053;28;20143;-38
2024/01/25 01:46:28;;;;;;;12.70;2.15;;;7.20;99.90;;;;;;5099664;28;20024;-35
2024/01/25 01:48:54;;;;;;;11.13;3.20;;;7.20;99.90;;;;;;5099420;28;20027;-36
2024/01/25 01:51:20;;;;;;;8.70;2.47;;;7.20;99.90;;;;;;5098598;28;20925;-36
2024/01/25 01:53:49;;;;;;;7.93;2.00;;;7.10;99.90;;;;;;5099814;28;20028;-38
2024/01/25 01:56:15;;;;;;;8.43;2.08;;;7.10;99.90;;;;;;5097167;28;20729;-36
2024/01/25 01:58:42;;;;;;;9.93;2.45;;;7.10;99.90;;;;;;5099947;28;20038;-35
2024/01/25 02:01:07;;;;;;;7.00;2.38;;;7.00;99.90;;;;;;5098965;28;20732;-34
2024/01/25 02:03:33;;;;;;;9.02;2.53;;;6.90;99.90;;;;;;5099293;28;20035;-38
2024/01/25 02:06:02;;;;;;;8.25;2.25;;;6.90;99.90;;;;;;5099438;28;20057;-35
2024/01/25 02:08:29;;;;;;;10.38;2.30;;;6.90;99.90;;;;;;5099045;28;20127;-43
2024/01/25 02:10:57;;;;;;;8.13;2.47;;;6.90;99.90;;;;;;5099346;28;20664;-37
2024/01/25 02:13:23;;;;;;;8.32;2.42;;;6.90;99.90;;;;;;5098609;28;20054;-38
2024/01/25 02:15:48;;;;;;;7.63;2.30;;;6.80;99.90;;;;;;5099596;28;20020;-38
2024/01/25 02:18:14;;;;;;;11.60;2.50;;;6.80;99.90;;;;;;5099148;28;20098;-37
2024/01/25 02:20:40;;;;;;;8.63;2.13;;;6.80;99.90;;;;;;5099716;28;20805;-36
2024/01/25 02:23:06;;;;;;;8.35;2.38;;;6.70;99.90;;;;;;5099403;28;20031;-34
2024/01/25 02:25:34;;;;;;;8.25;2.50;;;6.80;99.90;;;;;;5099196;28;20023;-38
2024/01/25 02:28:02;;;;;;;8.23;2.65;;;6.70;99.90;;;;;;5099272;28;20030;-37
2024/01/25 02:30:28;;;;;;;10.05;2.20;;;6.70;99.90;;;;;;5099577;28;20058;-37
2024/01/25 02:32:53;;;;;;;8.77;2.20;;;6.70;99.90;;;;;;5098996;28;20474;-38
2024/01/25 02:35:19;;;;;;;11.00;2.80;;;6.70;99.90;;;;;;5098481;28;20046;-38
2024/01/25 02:37:44;;;;;;;6.50;1.75;;;6.70;99.90;;;;;;5102584;28;20020;-36
2024/01/25 02:40:11;;;;;;;12.10;2.45;;;6.70;99.90;;;;;;5103296;28;20058;-39
2024/01/25 02:42:36;;;;;;;9.32;2.40;;;6.70;99.90;;;;;;5103295;28;20051;-38
2024/01/25 02:45:02;;;;;;;9.35;2.80;;;6.70;99.90;;;;;;5103132;28;20106;-37
2024/01/25 02:47:27;;;;;;;7.45;2.03;;;6.70;99.90;;;;;;5102763;28;20129;-35
2024/01/25 02:49:53;;;;;;;9.18;2.80;;;6.70;99.90;;;;;;5103346;28;20019;-39
2024/01/25 02:52:18;;;;;;;7.32;2.08;;;6.60;99.90;;;;;;5103132;28;20051;-38
2024/01/25 02:54:44;;;;;;;8.93;3.00;;;6.60;99.90;;;;;;5102939;28;20082;-36
2024/01/25 02:57:10;;;;;;;12.00;2.28;;;6.60;99.90;;;;;;5102971;28;20764;-34
2024/01/25 02:59:35;;;;;;;13.13;2.70;;;6.60;99.90;;;;;;5101904;28;20024;-39
2024/01/25 03:02:04;;;;;;;7.75;2.03;;;6.60;99.90;;;;;;5102400;28;20581;-32
2024/01/25 03:04:29;;;;;;;9.10;2.28;;;6.60;99.90;;;;;;5101740;28;20043;-36
2024/01/25 03:06:55;;;;;;;10.38;2.40;;;6.60;99.90;;;;;;5102042;28;20700;-33
2024/01/25 03:09:23;;;;;;;8.52;2.33;;;6.60;99.90;;;;;;5102263;28;20509;-34
2024/01/25 03:11:49;;;;;;;11.45;2.30;;;6.50;99.90;;;;;;5103622;28;20038;-35
2024/01/25 03:14:16;;;;;;;8.05;2.17;;;6.50;99.90;;;;;;5101981;28;20028;-37
2024/01/25 03:16:43;;;;;;;10.55;2.65;;;6.50;99.90;;;;;;5103384;28;20062;-36
2024/01/25 03:19:10;;;;;;;9.02;2.63;;;6.40;99.90;;;;;;5103190;28;20417;-36
2024/01/25 03:21:36;;;;;;;8.13;2.10;;;6.40;99.90;;;;;;5101829;28;20138;-35
2024/01/25 03:24:01;;;;;;;9.10;2.42;;;6.40;99.90;;;;;;5102072;28;20535;-32
2024/01/25 03:26:30;;;;;;;5.82;2.50;;;6.40;99.90;;;;;;5102660;28;20027;-33
2024/01/25 03:28:56;;;;;;;6.63;2.30;;;6.40;99.90;;;;;;5101434;28;20036;-36
2024/01/25 03:31:21;;;;;;;10.57;2.65;;;6.40;99.90;;;;;;5102093;28;20375;-36
2024/01/25 03:33:47;;;;;;;10.35;3.05;;;6.30;99.90;;;;;;5102647;28;20205;-36
2024/01/25 03:36:15;;;;;;;10.98;3.47;;;6.30;99.90;;;;;;5100991;28;20643;-36
2024/01/25 03:38:41;;;;;;;9.38;2.95;;;6.30;99.90;;;;;;5102557;28;20028;-37
2024/01/25 03:41:07;;;;;;;13.20;3.10;;;6.30;99.90;;;;;;5101820;28;20032;-35
2024/01/25 03:43:32;;;;;;;12.25;3.42;;;6.30;99.90;;;;;;5101748;28;20061;-39
2024/01/25 03:45:58;;;;;;;8.50;2.72;;;6.40;99.90;;;;;;5101507;28;20178;-36
2024/01/25 03:48:24;;;;;;;8.30;2.33;;;6.40;99.90;;;;;;5101425;28;20111;-38
2024/01/25 03:50:49;;;;;;;12.32;3.15;;;6.40;99.90;;;;;;5102076;28;20130;-33
2024/01/25 03:53:15;;;;;;;12.73;3.20;;;6.40;99.90;;;;;;5102213;28;20023;-36
2024/01/25 03:55:41;;;;;;;11.30;2.85;;;6.40;99.90;;;;;;5101816;28;20027;-35
2024/01/25 03:58:07;;;;;;;7.78;2.10;;;6.40;99.90;;;;;;5101563;28;20027;-33
2024/01/25 04:00:32;;;;;;;9.13;2.60;;;6.30;99.90;;;;;;5102027;28;20375;-38
2024/01/25 04:02:58;;;;;;;9.63;3.00;;;6.40;99.90;;;;;;5101046;28;20027;-38
2024/01/25 04:05:30;;;;;;;10.38;2.50;;;6.40;99.90;;;;;;5102182;28;20035;-34
2024/01/25 04:07:55;;;;;;;7.57;2.47;;;6.30;99.90;;;;;;5090722;28;20609;-38
2024/01/25 04:10:21;;;;;;;10.05;2.60;;;6.30;99.90;;;;;;5101337;28;20088;-38
2024/01/25 04:12:47;;;;;;;8.45;3.13;;;6.30;99.90;;;;;;5102345;28;20116;-35
2024/01/25 04:15:12;;;;;;;8.65;2.53;;;6.30;99.90;;;;;;5102531;28;20031;-31
2024/01/25 04:17:38;;;;;;;10.90;2.63;;;6.30;99.90;;;;;;5101271;28;20164;-32
2024/01/25 04:20:04;;;;;;;10.55;2.63;;;6.30;99.90;;;;;;5101902;28;20032;-34
2024/01/25 04:22:29;;;;;;;10.82;2.15;;;6.30;99.90;;;;;;5101539;28;20039;-35
2024/01/25 04:24:55;;;;;;;7.97;2.15;;;6.30;99.90;;;;;;5101935;28;20035;-32
2024/01/25 04:27:20;;;;;;;11.90;3.08;;;6.20;99.90;;;;;;5101278;28;20020;-33
2024/01/25 04:29:46;;;;;;;11.25;2.45;;;6.20;99.90;;;;;;5101975;28;20036;-33
2024/01/25 04:32:12;;;;;;;12.80;2.85;;;6.20;99.90;;;;;;5100633;28;20019;-31
2024/01/25 04:34:38;;;;;;;12.50;2.45;;;6.20;99.90;;;;;;5101357;28;20043;-34
2024/01/25 04:37:03;;;;;;;8.35;2.45;;;6.20;99.90;;;;;;5101246;28;20772;-34
2024/01/25 04:39:29;;;;;;;8.23;2.22;;;6.10;99.90;;;;;;5101057;28;20477;-37
2024/01/25 04:41:54;;;;;;;8.20;2.30;;;6.10;99.90;;;;;;5100990;28;20106;-36
2024/01/25 04:47:15;;;;;;;11.10;2.97;;;6.00;99.90;;;;;;5096534;28;20596;-35
2024/01/25 04:49:40;;;;;;;11.23;2.97;;;6.00;99.90;;;;;;5101292;28;20063;-37
2024/01/25 04:52:06;;;;;;;11.20;2.90;;;6.00;99.90;;;;;;5100130;28;20016;-35
2024/01/25 04:54:34;;;;;;;11.13;3.33;;;6.00;99.90;;;;;;5101522;28;20027;-33
2024/01/25 04:56:59;;;;;;;11.80;2.78;;;5.90;99.90;;;;;;5100525;28;20483;-33
2024/01/25 04:59:26;;;;;;;8.48;2.88;;;5.90;99.90;;;;;;5099849;28;20038;-34
2024/01/25 05:01:53;;;;;;;8.57;2.60;;;5.90;99.90;;;;;;5100211;28;20110;-34
2024/01/25 05:04:19;;;;;;;8.10;2.35;;;5.90;99.90;;;;;;5100361;28;20154;-35
2024/01/25 05:06:44;;;;;;;11.43;2.83;;;5.80;99.90;;;;;;5100561;28;20024;-36
2024/01/25 05:09:10;;;;;;;11.63;2.42;;;5.80;99.90;;;;;;5100629;28;20552;-32
2024/01/25 05:11:39;;;;;;;10.05;2.88;;;5.70;99.90;;;;;;5101180;28;20576;-35
2024/01/25 05:14:06;;;;;;;13.10;3.17;;;5.70;99.90;;;;;;5099559;28;20071;-32
2024/01/25 05:16:32;;;;;;;10.68;2.47;;;5.70;99.90;;;;;;5101097;28;20031;-35
2024/01/25 05:18:57;;;;;;;10.73;2.92;;;5.60;99.90;;;;;;5100119;28;20035;-33
2024/01/25 05:21:29;;;;;;;6.75;2.20;;;5.60;99.90;;;;;;5099609;28;20126;-37
2024/01/25 05:23:55;;;;;;;11.05;2.95;;;5.60;99.90;;;;;;5099775;28;20555;-33
2024/01/25 05:26:20;;;;;;;9.60;3.10;;;5.60;99.90;;;;;;5100294;28;20032;-33
2024/01/25 05:28:46;;;;;;;10.75;3.40;;;5.50;99.90;;;;;;5099706;28;20576;-34
2024/01/25 05:31:12;;;;;;;12.80;2.47;;;5.50;99.90;;;;;;5100073;28;20804;-31
2024/01/25 05:33:44;;;;;;;12.70;3.03;;;5.50;99.90;;;;;;5099922;28;20730;-34
2024/01/25 05:36:10;;;;;;;13.13;2.80;;;5.50;99.90;;;;;;5099205;28;20027;-32
2024/01/25 05:38:35;;;;;;;7.97;2.30;;;5.40;99.90;;;;;;5100648;28;20022;-34
2024/01/25 05:41:01;;;;;;;7.80;2.75;;;5.40;99.90;;;;;;5088728;28;20106;-36
2024/01/25 05:43:27;;;;;;;7.68;2.47;;;5.40;99.90;;;;;;5099057;28;20106;-36
2024/01/25 05:45:52;;;;;;;12.13;3.55;;;5.40;99.90;;;;;;5100570;28;20019;-36
2024/01/25 05:48:18;;;;;;;12.90;2.78;;;5.30;99.90;;;;;;5098781;28;20023;-36
2024/01/25 05:50:43;;;;;;;11.52;3.05;;;5.30;99.90;;;;;;5099613;28;20035;-36
2024/01/25 05:53:09;;;;;;;11.50;3.13;;;5.30;99.90;;;;;;5099681;28;20027;-36
2024/01/25 05:55:35;;;;;;;7.93;2.72;;;5.20;99.90;;;;;;5098872;28;20065;-34
2024/01/25 05:58:00;;;;;;;9.85;2.65;;;5.20;99.90;;;;;;5100312;28;20028;-37
2024/01/25 06:00:27;;;;;;;9.75;2.80;;;5.20;99.90;;;;;;5099620;28;20028;-34
2024/01/25 06:02:53;;;;;;;9.40;2.30;;;5.10;99.90;;;;;;5099466;28;20103;-33
2024/01/25 06:05:19;;;;;;;9.48;3.35;;;5.20;99.90;;;;;;5099229;28;20788;-33
2024/01/25 06:07:44;;;;;;;9.90;2.55;;;5.10;99.90;;;;;;5099643;28;20030;-36
2024/01/25 06:10:10;;;;;;;11.25;3.35;;;5.10;99.90;;;;;;5098542;28;20019;-35
2024/01/25 06:12:36;;;;;;;12.13;3.10;;;5.10;99.90;;;;;;5097249;28;20154;-36
2024/01/25 06:15:01;;;;;;;11.07;2.92;;;5.10;99.90;;;;;;5097959;28;20149;-38
2024/01/25 06:17:27;;;;;;;8.85;3.15;;;5.10;99.90;;;;;;5096433;28;20020;-35
2024/01/25 06:19:52;;;;;;;10.57;2.88;;;5.00;99.90;;;;;;5097501;28;20068;-37
2024/01/25 06:22:18;;;;;;;9.82;2.88;;;5.00;99.90;;;;;;5097102;28;20024;-35
2024/01/25 06:24:44;;;;;;;10.40;3.10;;;5.00;99.90;;;;;;5097050;28;20386;-33
2024/01/25 06:27:10;;;;;;;13.45;3.72;;;5.00;99.90;;;;;;5099170;28;20054;-33
2024/01/25 06:29:36;;;;;;;14.15;3.35;;;5.00;99.90;;;;;;5099566;28;20049;-33
2024/01/25 06:32:01;;;;;;;7.80;2.65;;;5.00;99.90;;;;;;5098398;28;20028;-36
2024/01/25 06:34:27;;;;;;;7.85;3.38;;;4.90;99.90;;;;;;5099107;28;20019;-36
2024/01/25 06:36:52;;;;;;;13.55;3.22;;;5.00;99.90;;;;;;5098811;28;20035;-37
2024/01/25 06:39:18;;;;;;;11.02;2.97;;;4.90;99.90;;;;;;5098646;28;20039;-37
2024/01/25 06:41:43;;;;;;;12.77;3.35;;;4.90;99.90;;;;;;5097952;28;20081;-36
2024/01/25 06:44:09;;;;;;;8.98;2.88;;;4.90;99.90;;;;;;5097497;28;20032;-36
2024/01/25 06:46:35;;;;;;;15.25;3.55;;;4.90;99.90;;;;;;5096845;28;20032;-36
2024/01/25 06:49:01;;;;;;;10.93;3.67;;;4.90;99.90;;;;;;5097689;28;20024;-36
2024/01/25 06:51:26;;;;;;;13.43;3.38;;;4.90;99.90;;;;;;5097168;28;20019;-36
2024/01/25 06:53:52;;;;;;;12.80;3.22;;;4.90;99.90;;;;;;5096964;28;20462;-36
2024/01/25 06:56:17;;;;;;;11.57;3.33;;;4.90;99.90;;;;;;5097609;28;20780;-37
2024/01/25 06:58:43;;;;;;;11.70;3.08;;;4.90;99.90;;;;;;5098411;28;20042;-38
2024/01/25 07:01:09;;;;;;;10.30;3.35;;;4.90;99.90;;;;;;5097842;28;20028;-32
2024/01/25 07:03:35;;;;;;;8.35;3.08;;;4.90;99.90;;;;;;5098439;28;20042;-33
2024/01/25 07:06:00;;;;;;;16.77;3.72;;;4.90;99.90;;;;;;5097919;28;20050;-31
2024/01/25 07:08:26;;;;;;;10.60;2.88;;;4.90;99.90;;;;;;5098230;28;20028;-36
2024/01/25 07:10:56;;;;;;;10.90;3.30;;;4.90;99.90;;;;;;5099062;28;20020;-36
2024/01/25 07:13:21;;;;;;;12.15;3.55;;;4.90;99.90;;;;;;5097060;28;20047;-37
2024/01/25 07:15:50;;;;;;;6.15;2.60;;;4.90;99.90;;;;;;5099110;28;20027;-35
2024/01/25 07:18:16;;;;;;;8.35;3.60;;;4.80;99.90;;;;;;5098357;28;20057;-35
2024/01/25 07:20:41;;;;;;;10.77;3.90;;;4.80;99.90;;;;;;5098241;28;20023;-34
2024/01/25 07:23:07;;;;;;;13.57;4.35;;;4.80;99.90;;;;;;5098363;28;20066;-36
2024/01/25 07:25:32;;;;;;;9.93;3.22;;;4.80;99.90;;;;;;5102614;28;20024;-34
2024/01/25 07:27:58;;;;;;;11.45;3.33;;;4.80;99.90;;;;;;5101588;28;20119;-36
2024/01/25 07:30:23;;;;;;;11.95;4.18;;;4.80;99.90;;;;;;5101864;28;20167;-35
2024/01/25 07:32:49;;;;;;;13.15;3.92;;;4.80;99.90;;;;;;5102063;28;20023;-34
2024/01/25 07:35:15;;;;;;;13.98;4.00;;;4.80;99.90;;;;;;5100876;28;20500;-36
2024/01/25 07:37:41;;;;;;;12.05;3.90;;;4.80;99.90;;;;;;5101768;28;20015;-34
2024/01/25 07:40:08;;;;;;;8.98;3.40;;;4.70;99.90;;;;;;5101811;28;20521;-33
2024/01/25 07:42:33;;;;;;;11.25;4.10;;;4.80;99.90;;;;;;5100901;28;20058;-35
2024/01/25 07:44:59;;;;;;;10.00;3.45;;;4.70;99.90;;;;;;5101098;28;20123;-37
2024/01/25 07:47:24;;;;;;;11.70;3.75;;;4.80;99.90;;;;;;5101761;28;20028;-36
2024/01/25 07:49:50;;;;;;;13.50;3.72;;;4.80;99.90;;;;;;5100327;28;20409;-33
2024/01/25 07:52:16;;;;;;;12.40;3.70;;;4.80;99.90;;;;;;5101465;28;20080;-36
2024/01/25 07:54:41;;;;;;;10.82;4.57;;;4.80;99.90;;;;;;5102188;28;20077;-36
2024/01/25 07:57:07;;;;;;;11.68;4.20;;;4.80;99.90;;;;;;5102170;28;20827;-31
2024/01/25 07:59:32;;;;;;;12.57;3.67;;;4.80;99.90;;;;;;5102119;28;20122;-35
2024/01/25 08:01:58;;;;;;;12.35;3.92;;;4.90;99.90;;;;;;5101349;28;20028;-36
2024/01/25 08:04:24;;;;;;;11.75;3.22;;;4.90;99.90;;;;;;5101182;28;20047;-34
2024/01/25 08:06:49;;;;;;;10.65;2.85;;;4.90;99.90;;;;;;5100481;28;20046;-36
2024/01/25 08:09:15;;;;;;;11.38;3.00;;;4.90;99.90;;;;;;5101407;28;20110;-33
2024/01/25 08:11:41;;;;;;;16.48;3.28;;;4.90;99.90;;;;;;5102178;28;20457;-37
2024/01/25 08:14:07;;;;;;;13.15;3.92;;;5.00;99.90;;;;;;5101096;28;20055;-37
2024/01/25 08:16:34;;;;;;;12.52;4.70;;;5.00;99.90;;;;;;5100940;28;20518;-37
2024/01/25 08:19:00;;;;;;;12.90;4.30;;;5.00;99.90;;;;;;5101425;28;20069;-35
2024/01/25 08:21:26;;;;;;;11.32;4.43;;;5.10;99.90;;;;;;5101305;28;20538;-33
2024/01/25 08:23:51;;;;;;;13.93;4.93;;;5.00;99.90;;;;;;5101594;28;20027;-35
2024/01/25 08:26:17;;;;;;;14.00;4.53;;;5.10;99.90;;;;;;5101087;28;20074;-38
2024/01/25 08:28:44;;;;;;;11.85;4.18;;;5.10;99.90;;;;;;5101779;28;20036;-35
2024/01/25 08:31:10;;;;;;;16.80;4.68;;;5.10;99.90;;;;;;5101244;28;20291;-33
2024/01/25 08:33:35;;;;;;;16.17;4.43;;;5.10;99.90;;;;;;5101665;28;20055;-37
2024/01/25 08:36:01;;;;;;;13.82;4.78;;;5.10;99.90;;;;;;5100602;28;20031;-36
2024/01/25 08:38:27;;;;;;;8.32;3.58;;;5.20;99.90;;;;;;5100230;28;20747;-37
2024/01/25 08:40:53;;;;;;;9.40;4.05;;;5.20;99.90;;;;;;5100776;28;20032;-37
2024/01/25 08:43:19;;;;;;;13.95;4.38;;;5.20;99.90;;;;;;5100504;28;20035;-36
2024/01/25 08:45:44;;;;;;;10.88;3.72;;;5.20;99.90;;;;;;5100807;28;20026;-37
2024/01/25 08:48:10;;;;;;;9.18;3.75;;;5.20;99.90;;;;;;5101080;28;20028;-33
2024/01/25 08:50:36;;;;;;;7.80;3.30;;;5.20;99.90;;;;;;5100482;28;20020;-35
2024/01/25 08:53:02;;;;;;;11.48;3.70;;;5.30;99.90;;;;;;5100339;28;20027;-36
2024/01/25 08:55:27;;;;;;;9.65;3.17;;;5.30;99.90;;;;;;5100707;28;20016;-33
2024/01/25 08:57:53;;;;;;;11.60;3.92;;;5.30;99.90;;;;;;5100993;28;20739;-37
2024/01/25 09:00:19;;;;;;;11.00;3.70;;;5.30;99.90;;;;;;5099982;28;20062;-36
2024/01/25 09:02:45;;;;;;;11.50;3.53;;;5.40;99.90;;;;;;5089506;28;20102;-31
2024/01/25 09:05:11;;;;;;;11.50;3.38;;;5.40;99.90;;;;;;5099624;28;20862;-34
2024/01/25 09:07:37;;;;;;;15.70;4.05;;;5.50;99.90;;;;;;5100030;28;20061;-37
2024/01/25 09:10:04;;;;;;;9.52;3.30;;;5.50;99.90;;;;;;5100194;28;20031;-33
2024/01/25 09:12:30;;;;;;;9.38;3.17;;;5.50;99.90;;;;;;5098594;28;20151;-33
2024/01/25 09:14:55;;;;;;;8.40;2.85;;;5.60;99.90;;;;;;5100716;28;20516;-32
2024/01/25 09:17:21;;;;;;;7.82;3.00;;;5.60;99.90;;;;;;5099663;28;20466;-35
2024/01/25 09:19:51;;;;;;;9.95;3.45;;;5.60;99.90;;;;;;5100453;28;20032;-35
2024/01/25 09:22:19;;;;;;;10.70;3.63;;;5.70;99.90;;;;;;5099358;28;20023;-35
2024/01/25 09:24:46;;;;;;;12.95;3.78;;;5.70;99.90;;;;;;5100178;28;20046;-36
2024/01/25 09:27:12;;;;;;;13.65;2.78;;;5.70;99.90;;;;;;5099227;28;20096;-32
2024/01/25 09:29:41;;;;;;;10.75;3.20;;;5.80;99.90;;;;;;5100558;28;20031;-38
2024/01/25 09:32:08;;;;;;;10.73;3.15;;;5.80;99.90;;;;;;5099944;28;20019;-32
2024/01/25 09:34:34;;;;;;;9.60;3.13;;;5.90;99.90;;;;;;5099161;28;20035;-36
2024/01/25 09:37:00;;;;;;;11.82;3.88;;;5.90;99.90;;;;;;5099718;28;20548;-35
2024/01/25 09:39:26;;;;;;;7.82;2.50;;;5.90;99.90;;;;;;5099435;28;20033;-37
2024/01/25 09:41:55;;;;;;;10.13;3.28;;;6.00;99.90;;;;;;5098161;28;20036;-34
2024/01/25 09:44:21;;;;;;;9.02;3.30;;;6.00;99.90;;;;;;5099606;28;20043;-38
2024/01/25 09:46:46;;;;;;;6.65;2.75;;;6.00;99.90;;;;;;5092187;28;20034;-35
2024/01/25 09:49:12;;;;;;;9.57;3.10;;;6.10;99.90;;;;;;5099124;28;20028;-37
2024/01/25 09:51:41;;;;;;;10.38;3.13;;;6.10;99.90;;;;;;5100324;28;20092;-35
2024/01/25 09:54:06;;;;;;;13.48;4.18;;;6.20;99.90;;;;;;5100036;28;20027;-33
2024/01/25 09:56:33;;;;;;;12.40;3.72;;;6.20;99.90;;;;;;5099448;28;20031;-38
2024/01/25 09:59:00;;;;;;;11.52;4.13;;;6.20;99.90;;;;;;5099727;28;20110;-36
2024/01/25 10:01:26;;;;;;;12.18;4.18;;;6.30;99.90;;;;;;5099634;28;20046;-34
2024/01/25 10:03:51;;;;;;;11.70;3.53;;;6.30;99.90;;;;;;5099619;28;20757;-34
2024/01/25 10:06:17;;;;;;;10.23;3.50;;;6.40;99.90;;;;;;5099939;28;20027;-33
2024/01/25 10:08:43;;;;;;;8.23;3.25;;;6.50;99.90;;;;;;5099135;28;20800;-37
2024/01/25 10:11:12;;;;;;;11.18;3.78;;;6.60;99.90;;;;;;5098341;28;20803;-38
2024/01/25 10:13:56;;;;;;;10.02;3.47;;;6.60;99.90;;;;;;5098550;28;20549;-34
2024/01/25 10:16:22;;;;;;;11.75;3.60;;;6.70;99.90;;;;;;5098062;28;20019;-36
2024/01/25 10:18:48;;;;;;;6.40;2.95;;;6.70;99.90;;;;;;5099234;28;20176;-36
2024/01/25 10:21:15;;;;;;;14.20;3.38;;;6.70;99.90;;;;;;5099593;28;20024;-36
2024/01/25 10:23:45;;;;;;;9.45;3.65;;;6.80;99.90;;;;;;5098742;28;20077;-37
2024/01/25 10:26:14;;;;;;;7.75;3.00;;;6.80;99.90;;;;;;5099738;28;20024;-37
2024/01/25 10:28:39;;;;;;;8.38;3.05;;;6.90;99.90;;;;;;5099540;28;20016;-35
2024/01/25 10:31:06;;;;;;;7.35;3.33;;;6.90;99.90;;;;;;5098786;28;20076;-38
2024/01/25 10:33:31;;;;;;;13.80;3.45;;;6.90;99.90;;;;;;5099388;28;20032;-36
2024/01/25 10:36:03;;;;;;;8.50;3.20;;;6.90;99.90;;;;;;5100283;28;20023;-38
2024/01/25 10:38:37;;;;;;;7.65;2.83;;;6.90;99.90;;;;;;5098739;28;20106;-36
2024/01/25 10:41:05;;;;;;;7.70;3.53;;;7.00;99.90;;;;;;5088537;28;20028;-36
2024/01/25 10:43:31;;;;;;;7.88;3.30;;;7.00;99.90;;;;;;5099680;28;20070;-37
2024/01/25 10:45:58;;;;;;;14.25;3.83;;;7.00;99.90;;;;;;5098575;28;20024;-33
2024/01/25 10:48:26;;;;;;;8.90;3.55;;;7.00;99.90;;;;;;5099348;28;20027;-38
2024/01/25 10:51:02;;;;;;;10.82;4.07;;;7.10;99.90;;;;;;5099060;28;20085;-38
2024/01/25 10:53:31;;;;;;;9.65;3.10;;;7.20;99.90;;;;;;5098492;28;20034;-32
2024/01/25 10:55:57;;;;;;;7.03;2.53;;;7.20;99.90;;;;;;5097846;28;20144;-33
2024/01/25 10:58:23;;;;;;;6.25;2.80;;;7.20;99.90;;;;;;5100997;28;20062;-35
2024/01/25 11:01:02;;;;;;;9.27;3.33;;;7.20;99.90;;;;;;5103097;28;20114;-33
2024/01/25 11:03:28;;;;;;;8.60;3.15;;;7.40;99.90;;;;;;5103002;28;20031;-33
2024/01/25 11:06:10;;;;;;;5.68;2.92;;;7.40;99.90;;;;;;5101882;28;20035;-37
2024/01/25 11:08:38;;;;;;;8.47;2.90;;;7.50;99.90;;;;;;5103019;28;20406;-38
2024/01/25 11:11:12;;;;;;;11.82;3.38;;;7.60;99.90;;;;;;5102503;28;21001;-36
2024/01/25 11:13:42;;;;;;;8.23;2.80;;;7.50;99.90;;;;;;5102345;28;20093;-34
2024/01/25 11:16:18;;;;;;;7.20;2.65;;;7.60;99.90;;;;;;5102106;28;20043;-38
2024/01/25 11:18:52;;;;;;;8.52;3.35;;;7.70;99.90;;;;;;5082436;28;20024;-38
2024/01/25 11:21:29;;;;;;;8.95;3.00;;;7.70;99.90;;;;;;5098863;28;20040;-36
2024/01/25 11:24:01;;;;;;;8.50;3.10;;;7.80;99.90;;;;;;5082244;28;20067;-36
2024/01/25 11:26:27;;;;;;;12.32;3.70;;;7.80;99.90;;;;;;5098524;28;20028;-36
2024/01/25 11:28:53;;;;;;;9.85;3.58;;;7.80;99.90;;;;;;5102449;28;20470;-35
2024/01/25 11:31:18;;;;;;;10.00;3.30;;;7.90;99.90;;;;;;5102374;28;20036;-35
2024/01/25 11:33:44;;;;;;;11.20;3.60;;;7.90;99.90;;;;;;5101973;28;20040;-34
2024/01/25 11:36:10;;;;;;;9.10;3.40;;;8.00;99.90;;;;;;5102220;28;20062;-37
2024/01/25 11:38:39;;;;;;;10.85;3.65;;;8.10;99.90;;;;;;5102816;28;20024;-37
2024/01/25 11:41:06;;;;;;;10.68;3.13;;;8.20;99.90;;;;;;5101637;28;20049;-39
2024/01/25 11:43:32;;;;;;;11.05;3.40;;;8.20;99.90;;;;;;5101946;28;20083;-33
2024/01/25 11:45:58;;;;;;;11.30;3.38;;;8.30;99.90;;;;;;5101630;28;20034;-36
2024/01/25 11:48:27;;;;;;;10.13;3.70;;;8.40;99.90;;;;;;5101450;28;20023;-33
2024/01/25 11:50:53;;;;;;;12.38;3.97;;;8.40;99.90;;;;;;5102083;28;20020;-35
2024/01/25 11:53:19;;;;;;;9.45;3.85;;;8.50;99.90;;;;;;5101661;28;20019;-33
2024/01/25 11:55:44;;;;;;;10.50;3.58;;;8.50;99.90;;;;;;5101695;28;20077;-36
2024/01/25 11:58:10;;;;;;;8.05;3.95;;;8.50;99.90;;;;;;5101617;28;20453;-36
2024/01/25 12:00:36;;;;;;;11.45;4.30;;;8.50;99.90;;;;;;5102020;28;20747;-35
2024/01/25 12:03:02;;;;;;;12.52;3.83;;;8.60;99.90;;;;;;5101747;28;20024;-34
2024/01/25 12:05:28;;;;;;;10.60;4.35;;;8.60;99.90;;;;;;5101399;28;20069;-35
2024/01/25 12:07:53;;;;;;;13.82;4.32;;;8.60;99.90;;;;;;5101220;28;20030;-35
2024/01/25 12:10:19;;;;;;;12.77;4.03;;;8.60;99.90;;;;;;5100501;28;20078;-34
2024/01/25 12:12:44;;;;;;;12.75;4.40;;;8.60;99.90;;;;;;5101288;28;20043;-34
2024/01/25 12:15:10;;;;;;;11.95;4.28;;;8.60;99.90;;;;;;5100952;28;20139;-35
2024/01/25 12:17:38;;;;;;;11.57;4.43;;;8.70;99.90;;;;;;5101074;28;20043;-38
2024/01/25 12:20:08;;;;;;;9.05;3.97;;;8.70;99.90;;;;;;5102130;28;20415;-34
2024/01/25 12:22:33;;;;;;;13.20;4.38;;;8.70;99.90;;;;;;5101017;28;20134;-36
2024/01/25 12:24:59;;;;;;;8.32;3.95;;;8.70;99.90;;;;;;5101918;28;20023;-35
2024/01/25 12:27:26;;;;;;;10.52;3.95;;;8.80;99.90;;;;;;5101014;28;20757;-36
2024/01/25 12:29:57;;;;;;;10.82;4.07;;;8.70;99.90;;;;;;5100667;28;20036;-33
2024/01/25 12:32:23;;;;;;;9.27;3.67;;;8.70;99.90;;;;;;5101664;28;20137;-34
2024/01/25 12:34:56;;;;;;;7.78;3.95;;;8.60;99.90;;;;;;5101259;28;20592;-35
2024/01/25 12:37:21;;;;;;;;;;;8.60;99.90;;;;;;5100156;28;20478;-38
2024/01/25 12:39:47;;;;;;;11.55;4.18;;;8.60;99.90;;;;;;5100678;28;19933;-36
2024/01/25 12:42:13;;;;;;;11.57;4.57;;;8.50;99.90;;;;;;5100029;28;20030;-37
2024/01/25 12:44:39;;;;;;;12.45;4.65;;;8.50;99.90;;;;;;5099473;28;20772;-35
2024/01/25 12:47:07;;;;;;;11.05;4.20;;;8.50;99.90;;;;;;5100626;28;20028;-33
2024/01/25 12:49:33;;;;;;;13.25;4.20;;;8.60;99.90;;;;;;5099461;28;20032;-34
2024/01/25 12:51:59;;;;;;;12.63;4.50;;;8.60;99.90;;;;;;5099826;28;20024;-34